< < Back
Terminal Aerodrome Forecast


Current Version              Previous Versions:   1  2  3  4  5  6  7  8  9  

Terminal Aerodrome Forecast

301
FTUS42 KILM 272300
TAFFLO
TAF
KFLO 272320Z 2800/2824 35006KT P6SM FEW060=



Latest METAR

491
SAUS70 KWBC 282300 RRE
MTRFLO
METAR KFLO 282253Z 00000KT 10SM CLR 04/M03 A3031 RMK AO2 SLP264
T00441033


USA.gov is the U.S. government's official web portal to all federal, state and local government web resources and services.